createdAt,value
2022-09-07T00:01:08.514Z,10.93
2022-09-07T00:03:37.404Z,9.18
2022-09-07T00:06:08.268Z,11.35
2022-09-07T00:08:36.948Z,8.93
2022-09-07T00:11:13.088Z,10.60
2022-09-07T00:13:43.143Z,10.45
2022-09-07T00:16:15.194Z,9.40
2022-09-07T00:18:46.256Z,9.20
2022-09-07T00:21:16.871Z,9.73
2022-09-07T00:23:45.800Z,9.65
2022-09-07T00:26:15.831Z,10.80
2022-09-07T00:28:44.537Z,13.00
2022-09-07T00:31:16.573Z,11.93
2022-09-07T00:33:45.700Z,10.20
2022-09-07T00:36:13.915Z,9.45
2022-09-07T00:38:42.315Z,11.15
2022-09-07T00:41:11.080Z,10.45
2022-09-07T00:43:42.083Z,9.55
2022-09-07T00:46:16.039Z,12.32
2022-09-07T00:51:19.039Z,10.30
2022-09-07T00:53:53.767Z,12.13
2022-09-07T00:56:25.149Z,11.10
2022-09-07T00:58:54.171Z,12.20
2022-09-07T01:01:24.186Z,12.43
2022-09-07T01:03:54.939Z,11.82
2022-09-07T01:06:27.664Z,12.60
2022-09-07T01:08:58.083Z,14.50
2022-09-07T01:11:26.368Z,14.52
2022-09-07T01:13:58.098Z,13.00
2022-09-07T01:16:42.957Z,12.45
2022-09-07T01:19:45.823Z,11.27
2022-09-07T01:22:42.640Z,12.68
2022-09-07T01:25:12.125Z,13.00
2022-09-07T01:28:04.529Z,12.68
2022-09-07T01:30:36.495Z,12.25
2022-09-07T01:33:20.384Z,11.80
2022-09-07T01:35:56.519Z,11.93
2022-09-07T01:38:33.025Z,11.38
2022-09-07T01:41:06.390Z,14.30
2022-09-07T01:43:42.701Z,12.63
2022-09-07T01:46:17.683Z,12.40
2022-09-07T01:48:49.704Z,12.95
2022-09-07T01:51:20.497Z,13.57
2022-09-07T01:53:54.141Z,13.18
2022-09-07T01:56:28.524Z,12.38
2022-09-07T01:59:01.681Z,12.52
2022-09-07T02:01:33.287Z,15.13
2022-09-07T02:04:07.323Z,13.45
2022-09-07T02:09:12.396Z,12.27
2022-09-07T02:11:43.955Z,12.60
2022-09-07T02:14:20.780Z,11.52
2022-09-07T02:16:56.558Z,11.32
2022-09-07T02:19:28.233Z,12.30
2022-09-07T02:22:00.913Z,11.68
2022-09-07T02:24:33.901Z,12.57
2022-09-07T02:27:08.523Z,11.55
2022-09-07T02:29:38.552Z,12.65
2022-09-07T02:32:07.301Z,12.35
2022-09-07T02:34:35.546Z,12.68
2022-09-07T02:37:09.021Z,11.80
2022-09-07T02:39:37.352Z,12.57
2022-09-07T02:42:06.061Z,12.65
2022-09-07T02:44:40.656Z,12.85
2022-09-07T02:47:25.492Z,13.05
2022-09-07T02:50:09.196Z,13.35
2022-09-07T02:52:45.564Z,12.15
2022-09-07T02:55:27.134Z,13.60
2022-09-07T02:58:04.610Z,13.15
2022-09-07T03:00:41.685Z,13.40
2022-09-07T03:03:16.897Z,13.98
2022-09-07T03:05:50.390Z,16.23
2022-09-07T03:08:22.658Z,14.80
2022-09-07T03:10:51.990Z,15.93
2022-09-07T03:13:25.322Z,14.90
2022-09-07T03:15:56.416Z,15.30
2022-09-07T03:18:24.870Z,13.45
2022-09-07T03:20:53.290Z,14.18
2022-09-07T03:23:21.547Z,17.50
2022-09-07T03:25:50.077Z,14.70
2022-09-07T03:28:18.443Z,15.00
2022-09-07T03:30:47.520Z,15.27
2022-09-07T03:33:18.431Z,14.48
2022-09-07T03:35:47.981Z,14.10
2022-09-07T03:38:16.213Z,13.80
2022-09-07T03:40:44.376Z,15.07
2022-09-07T03:43:12.594Z,15.45
2022-09-07T03:45:41.556Z,15.50
2022-09-07T03:48:14.003Z,17.67
2022-09-07T03:50:43.641Z,14.80
2022-09-07T03:53:12.078Z,15.10
2022-09-07T03:55:40.222Z,15.35
2022-09-07T03:58:08.420Z,15.35
2022-09-07T04:00:36.664Z,15.80
2022-09-07T04:03:04.957Z,16.15
2022-09-07T04:05:33.920Z,15.80
2022-09-07T04:08:04.080Z,16.15
2022-09-07T04:10:32.353Z,16.55
2022-09-07T04:13:00.635Z,16.85
2022-09-07T04:15:30.438Z,16.92
2022-09-07T04:17:58.668Z,20.85
2022-09-07T04:20:26.854Z,17.33
2022-09-07T04:22:55.413Z,18.08
2022-09-07T04:25:25.043Z,15.68
2022-09-07T04:27:53.281Z,15.15
2022-09-07T04:30:21.485Z,16.65
2022-09-07T04:32:49.678Z,15.60
2022-09-07T04:35:18.004Z,14.55
2022-09-07T04:37:46.386Z,14.00
2022-09-07T04:40:14.618Z,13.63
2022-09-07T04:42:44.253Z,16.50
2022-09-07T04:45:13.091Z,14.95
2022-09-07T04:47:41.251Z,13.68
2022-09-07T04:50:10.618Z,16.33
2022-09-07T04:52:38.848Z,18.35
2022-09-07T04:55:07.788Z,14.43
2022-09-07T04:57:36.254Z,14.07
2022-09-07T05:00:09.346Z,12.68
2022-09-07T05:02:39.116Z,14.00
2022-09-07T05:05:08.216Z,14.48
2022-09-07T05:07:36.466Z,16.38
2022-09-07T05:10:05.368Z,13.38
2022-09-07T05:12:33.585Z,12.13
2022-09-07T05:15:01.762Z,15.88
2022-09-07T05:17:32.323Z,15.73
2022-09-07T05:20:00.473Z,18.40
2022-09-07T05:22:28.655Z,17.45
2022-09-07T05:24:57.488Z,14.18
2022-09-07T05:27:25.714Z,15.98
2022-09-07T05:30:02.051Z,12.55
2022-09-07T05:32:33.025Z,14.13
2022-09-07T05:35:01.291Z,12.93
2022-09-07T05:37:29.549Z,15.02
2022-09-07T05:39:58.451Z,12.85
2022-09-07T05:42:26.837Z,23.00
2022-09-07T05:44:55.234Z,18.48
2022-09-07T05:47:23.445Z,11.90
2022-09-07T05:49:57.092Z,9.60
2022-09-07T05:54:56.639Z,13.68
2022-09-07T05:57:36.004Z,13.60
2022-09-07T06:00:05.840Z,9.15
2022-09-07T06:02:40.856Z,15.25
2022-09-07T06:05:12.398Z,13.18
2022-09-07T06:07:40.811Z,10.25
2022-09-07T06:12:59.340Z,9.13
2022-09-07T06:15:27.528Z,12.68
2022-09-07T06:17:55.778Z,10.52
2022-09-07T06:20:25.491Z,9.93
2022-09-07T06:22:54.191Z,12.05
2022-09-07T06:25:22.520Z,17.80
2022-09-07T06:27:52.090Z,15.43
2022-09-07T06:30:20.318Z,22.88
2022-09-07T06:32:49.008Z,21.33
2022-09-07T06:35:17.405Z,20.05
2022-09-07T06:37:47.096Z,17.15
2022-09-07T06:40:15.638Z,10.23
2022-09-07T06:42:43.911Z,16.95
2022-09-07T06:45:13.013Z,9.88
2022-09-07T06:47:41.476Z,10.25
2022-09-07T06:50:12.499Z,13.60
2022-09-07T06:55:30.537Z,14.27
2022-09-07T06:57:58.862Z,11.48
2022-09-07T07:00:27.044Z,11.55
2022-09-07T07:02:55.274Z,11.30
2022-09-07T07:05:23.643Z,13.07
2022-09-07T07:07:51.823Z,20.50
2022-09-07T07:10:24.508Z,11.98
2022-09-07T07:12:58.220Z,16.55
2022-09-07T07:15:28.754Z,12.48
2022-09-07T07:18:02.640Z,13.13
2022-09-07T07:20:37.806Z,12.70
2022-09-07T07:23:06.627Z,10.15
2022-09-07T07:25:35.743Z,11.35
2022-09-07T07:30:57.293Z,10.25
2022-09-07T07:33:25.925Z,9.15
2022-09-07T07:35:54.230Z,10.50
2022-09-07T07:44:00.803Z,17.95
2022-09-07T07:46:30.325Z,13.18
2022-09-07T07:48:58.725Z,12.95
2022-09-07T07:51:27.066Z,17.58
2022-09-07T07:53:55.507Z,10.50
2022-09-07T07:56:23.912Z,13.90
2022-09-07T07:58:52.576Z,14.38
2022-09-07T08:01:22.207Z,12.05
2022-09-07T08:03:50.963Z,11.57
2022-09-07T08:06:20.813Z,12.15
2022-09-07T08:08:49.290Z,10.02
2022-09-07T08:11:19.210Z,11.05
2022-09-07T08:13:49.748Z,8.02
2022-09-07T08:16:19.191Z,8.75
2022-09-07T08:18:49.358Z,11.93
2022-09-07T08:21:17.764Z,13.40
2022-09-07T08:23:45.920Z,13.95
2022-09-07T08:26:14.159Z,11.07
2022-09-07T08:28:45.621Z,14.27
2022-09-07T08:31:15.860Z,10.10
2022-09-07T08:33:44.499Z,9.98
2022-09-07T08:36:15.729Z,8.02
2022-09-07T08:38:43.831Z,19.20
2022-09-07T08:41:33.107Z,16.05
2022-09-07T08:44:04.382Z,10.07
2022-09-07T08:46:39.548Z,11.73
2022-09-07T08:49:17.407Z,11.38
2022-09-07T08:51:51.886Z,13.85
2022-09-07T08:54:20.178Z,11.68
2022-09-07T08:59:44.329Z,8.88
2022-09-07T09:02:34.895Z,9.20
2022-09-07T09:05:21.528Z,16.38
2022-09-07T09:08:05.218Z,16.05
2022-09-07T09:10:44.183Z,21.38
2022-09-07T09:13:19.255Z,11.32
2022-09-07T09:15:58.553Z,15.35
2022-09-07T09:18:40.146Z,10.35
2022-09-07T09:21:14.950Z,13.13
2022-09-07T09:23:47.930Z,10.77
2022-09-07T09:26:22.325Z,11.48
2022-09-07T09:28:50.671Z,10.77
2022-09-07T09:31:21.277Z,11.18
2022-09-07T09:34:11.358Z,10.45
2022-09-07T09:36:45.737Z,9.88
2022-09-07T09:39:28.991Z,12.98
2022-09-07T09:41:59.785Z,12.20
2022-09-07T09:44:32.876Z,8.77
2022-09-07T09:49:54.781Z,8.98
2022-09-07T09:52:30.442Z,22.02
2022-09-07T09:55:23.543Z,10.65
2022-09-07T10:04:01.503Z,7.90
2022-09-07T10:06:32.633Z,10.85
2022-09-07T10:09:02.479Z,14.55
2022-09-07T10:14:37.276Z,8.82
2022-09-07T10:17:24.887Z,11.90
2022-09-07T10:19:53.087Z,16.73
2022-09-07T10:22:40.488Z,11.52
2022-09-07T10:25:29.893Z,10.43
2022-09-07T10:28:21.161Z,13.52
2022-09-07T10:31:15.237Z,13.80
2022-09-07T10:36:45.359Z,13.25
2022-09-07T10:39:17.469Z,11.15
2022-09-07T10:41:53.434Z,9.85
2022-09-07T10:44:36.692Z,10.23
2022-09-07T10:47:13.524Z,6.28
2022-09-07T10:52:45.927Z,11.75
2022-09-07T10:55:22.362Z,9.70
2022-09-07T10:58:03.743Z,8.95
2022-09-07T11:00:42.479Z,9.02
2022-09-07T11:03:37.859Z,10.63
2022-09-07T11:06:15.580Z,17.08
2022-09-07T11:12:07.274Z,8.90
2022-09-07T11:14:42.540Z,8.20
2022-09-07T11:17:18.620Z,10.15
2022-09-07T11:19:54.279Z,8.48
2022-09-07T11:22:31.155Z,10.48
2022-09-07T11:27:57.176Z,10.32
2022-09-07T11:30:28.645Z,13.63
2022-09-07T11:33:13.572Z,13.05
2022-09-07T11:35:48.436Z,14.90
2022-09-07T11:38:25.693Z,13.40
2022-09-07T11:41:07.590Z,14.13
2022-09-07T11:43:41.399Z,13.65
2022-09-07T11:46:17.204Z,15.93
2022-09-07T11:48:52.162Z,15.18
2022-09-07T11:51:24.671Z,14.98
2022-09-07T11:53:57.193Z,16.85
2022-09-07T11:56:36.216Z,17.55
2022-09-07T11:59:22.070Z,17.58
2022-09-07T12:02:04.251Z,15.88
2022-09-07T12:04:46.688Z,14.77
2022-09-07T12:07:47.916Z,17.90
2022-09-07T12:10:49.482Z,15.30
2022-09-07T12:13:49.875Z,14.32
2022-09-07T12:16:25.061Z,14.93
2022-09-07T12:19:18.044Z,15.02
2022-09-07T12:21:55.430Z,19.83
2022-09-07T12:24:51.456Z,16.13
2022-09-07T12:27:39.714Z,16.63
2022-09-07T12:30:52.906Z,15.45
2022-09-07T12:33:39.636Z,15.23
2022-09-07T12:36:43.449Z,15.00
2022-09-07T12:39:28.524Z,15.57
2022-09-07T12:42:38.438Z,16.88
2022-09-07T12:45:43.749Z,15.52
2022-09-07T12:48:28.335Z,14.32
2022-09-07T12:51:02.011Z,22.65
2022-09-07T12:53:35.129Z,21.40
2022-09-07T12:56:28.760Z,18.75
2022-09-07T12:59:17.316Z,14.98
2022-09-07T13:01:59.206Z,13.82
2022-09-07T13:04:54.251Z,13.98
2022-09-07T13:07:37.436Z,14.02
2022-09-07T13:10:20.386Z,13.00
2022-09-07T13:12:53.157Z,12.93
2022-09-07T13:18:03.491Z,12.45
2022-09-07T13:20:37.534Z,12.13
2022-09-07T13:23:24.070Z,12.77
2022-09-07T13:25:59.001Z,12.70
2022-09-07T13:28:35.111Z,11.80
2022-09-07T13:31:17.934Z,11.43
2022-09-07T13:33:51.270Z,11.77
2022-09-07T13:36:25.631Z,11.45
2022-09-07T13:38:55.097Z,13.55
2022-09-07T13:41:27.142Z,10.77
2022-09-07T13:44:00.789Z,12.63
2022-09-07T13:46:47.831Z,20.40
2022-09-07T13:49:55.725Z,12.25
2022-09-07T13:52:33.340Z,10.93
2022-09-07T13:55:22.653Z,9.82
2022-09-07T13:58:06.675Z,14.60
2022-09-07T14:00:36.295Z,11.13
2022-09-07T14:03:08.549Z,9.48
2022-09-07T14:05:37.330Z,10.35
2022-09-07T14:08:05.371Z,8.35
2022-09-07T14:10:33.715Z,7.82
2022-09-07T14:13:14.128Z,7.47
2022-09-07T14:15:45.081Z,12.23
2022-09-07T14:18:15.014Z,14.25
2022-09-07T14:20:45.762Z,11.55
2022-09-07T14:23:23.320Z,8.43
2022-09-07T14:26:16.398Z,7.80
2022-09-07T14:28:46.992Z,9.82
2022-09-07T14:31:18.774Z,11.60
2022-09-07T14:33:51.208Z,8.70
2022-09-07T14:36:42.404Z,7.15
2022-09-07T14:39:10.262Z,11.32
2022-09-07T14:41:40.629Z,9.57
2022-09-07T14:44:28.545Z,7.65
2022-09-07T14:46:59.756Z,8.73
2022-09-07T14:49:28.904Z,9.50
2022-09-07T14:51:57.440Z,9.63
2022-09-07T14:54:28.940Z,8.13
2022-09-07T14:57:07.036Z,11.90
2022-09-07T14:59:44.083Z,9.30
2022-09-07T15:02:36.651Z,10.75
2022-09-07T15:05:26.749Z,11.55
2022-09-07T15:07:57.814Z,10.48
2022-09-07T15:10:37.256Z,12.70
2022-09-07T15:13:07.582Z,10.77
2022-09-07T15:15:39.578Z,11.25
2022-09-07T15:18:52.480Z,9.73
2022-09-07T15:21:20.623Z,11.07
2022-09-07T15:23:53.023Z,11.05
2022-09-07T15:29:11.859Z,10.48
2022-09-07T15:31:42.554Z,11.45
2022-09-07T15:34:15.999Z,14.52
2022-09-07T15:36:48.742Z,11.40
2022-09-07T15:39:18.856Z,14.00
2022-09-07T15:41:47.059Z,13.05
2022-09-07T15:44:15.937Z,13.50
2022-09-07T15:47:43.162Z,12.07
2022-09-07T15:49:33.960Z,16.90
2022-09-07T15:52:05.792Z,14.07
2022-09-07T15:54:39.299Z,16.55
2022-09-07T15:59:56.019Z,14.05
2022-09-07T16:05:13.655Z,14.73
2022-09-07T16:10:31.768Z,14.93
2022-09-07T16:13:02.399Z,15.10
2022-09-07T16:15:31.439Z,13.32
2022-09-07T16:17:59.592Z,16.27
2022-09-07T16:20:32.098Z,15.25
2022-09-07T16:23:16.920Z,13.75
2022-09-07T16:25:56.580Z,13.80
2022-09-07T16:28:25.238Z,15.70
2022-09-07T16:30:53.462Z,18.92
2022-09-07T16:33:21.804Z,15.43
2022-09-07T16:35:59.831Z,14.18
2022-09-07T16:38:44.474Z,13.27
2022-09-07T16:41:14.645Z,16.50
2022-09-07T16:43:43.132Z,16.35
2022-09-07T16:46:14.400Z,14.65
2022-09-07T16:48:42.896Z,15.57
2022-09-07T16:51:16.393Z,17.73
2022-09-07T16:53:44.627Z,14.65
2022-09-07T16:56:16.515Z,16.35
2022-09-07T16:58:46.963Z,16.92
2022-09-07T17:01:16.372Z,18.52
2022-09-07T17:03:45.293Z,17.55
2022-09-07T17:06:15.929Z,17.52
2022-09-07T17:08:44.326Z,18.77
2022-09-07T17:11:14.239Z,15.63
2022-09-07T17:13:43.655Z,16.35
2022-09-07T17:16:13.836Z,20.48
2022-09-07T17:21:33.561Z,18.67
2022-09-07T17:24:04.170Z,23.23
2022-09-07T17:26:33.311Z,17.13
2022-09-07T17:29:01.700Z,20.25
2022-09-07T17:34:20.245Z,22.73
2022-09-07T17:36:51.502Z,17.75
2022-09-07T17:39:19.991Z,17.08
2022-09-07T17:41:48.678Z,21.48
2022-09-07T17:44:17.167Z,24.15
2022-09-07T17:46:45.382Z,27.17
2022-09-07T17:49:16.353Z,18.25
2022-09-07T17:51:45.393Z,23.88
2022-09-07T17:54:20.937Z,24.65
2022-09-07T17:56:49.204Z,20.38
2022-09-07T18:02:05.892Z,20.42
2022-09-07T18:04:35.825Z,20.30
2022-09-07T18:07:04.083Z,24.98
2022-09-07T18:09:33.564Z,21.50
2022-09-07T18:12:01.713Z,22.35
2022-09-07T18:14:30.257Z,23.98
2022-09-07T18:16:58.408Z,22.58
2022-09-07T18:19:26.449Z,18.60
2022-09-07T18:21:57.250Z,23.70
2022-09-07T18:24:25.950Z,19.98
2022-09-07T18:26:55.616Z,20.75
2022-09-07T18:29:29.318Z,35.03
2022-09-07T18:31:59.743Z,26.25
2022-09-07T18:34:28.816Z,35.38
2022-09-07T18:36:58.233Z,29.95
2022-09-07T18:39:26.588Z,23.00
2022-09-07T18:41:56.447Z,28.27
2022-09-07T18:47:21.455Z,25.58
2022-09-07T18:49:51.367Z,22.50
2022-09-07T18:55:08.634Z,26.10
2022-09-07T18:57:38.352Z,26.30
2022-09-07T19:00:09.002Z,27.67
2022-09-07T19:02:37.459Z,23.63
2022-09-07T19:07:54.359Z,26.27
2022-09-07T19:10:23.172Z,24.60
2022-09-07T19:12:52.658Z,23.35
2022-09-07T19:15:21.256Z,29.77
2022-09-07T19:17:49.322Z,22.45
2022-09-07T19:20:17.521Z,25.13
2022-09-07T19:22:45.568Z,23.80
2022-09-07T19:25:13.572Z,26.83
2022-09-07T19:27:41.593Z,24.60
2022-09-07T19:30:12.133Z,23.30
2022-09-07T19:32:40.445Z,22.70
2022-09-07T19:35:09.040Z,20.95
2022-09-07T19:37:37.063Z,25.27
2022-09-07T19:40:05.720Z,22.98
2022-09-07T19:42:33.805Z,25.52
2022-09-07T19:45:01.842Z,22.73
2022-09-07T19:47:31.561Z,21.80
2022-09-07T19:49:59.666Z,30.50
2022-09-07T19:52:27.805Z,22.38
2022-09-07T19:54:57.134Z,24.13
2022-09-07T19:57:25.285Z,25.23
2022-09-07T19:59:56.678Z,24.48
2022-09-07T20:02:24.781Z,25.02
2022-09-07T20:04:54.358Z,24.73
2022-09-07T20:07:22.562Z,22.65
2022-09-07T20:09:52.371Z,24.58
2022-09-07T20:12:20.393Z,29.50
2022-09-07T20:14:48.416Z,25.60
2022-09-07T20:17:16.437Z,27.77
2022-09-07T20:19:44.443Z,27.92
2022-09-07T20:22:13.893Z,27.10
2022-09-07T20:24:41.890Z,25.63
2022-09-07T20:27:10.586Z,25.95
2022-09-07T20:29:38.608Z,24.45
2022-09-07T20:32:06.864Z,27.23
2022-09-07T20:34:34.925Z,28.95
2022-09-07T20:37:03.225Z,25.08
2022-09-07T20:39:36.985Z,26.02
2022-09-07T20:42:07.771Z,27.20
2022-09-07T20:44:35.851Z,29.08
2022-09-07T20:47:04.008Z,31.17
2022-09-07T20:49:32.109Z,24.60
2022-09-07T20:52:00.199Z,26.55
2022-09-07T20:54:28.230Z,27.92
2022-09-07T20:57:00.970Z,31.77
2022-09-07T20:59:31.603Z,29.70
2022-09-07T21:01:59.716Z,31.90
2022-09-07T21:04:27.986Z,29.05
2022-09-07T21:06:58.060Z,28.83
2022-09-07T21:09:26.074Z,27.92
2022-09-07T21:11:57.102Z,29.63
2022-09-07T21:14:26.793Z,29.50
2022-09-07T21:16:54.805Z,31.17
2022-09-07T21:19:22.808Z,29.33
2022-09-07T21:21:50.851Z,35.38
2022-09-07T21:24:20.837Z,31.77
2022-09-07T21:26:49.514Z,32.60
2022-09-07T21:29:19.150Z,35.50
2022-09-07T21:31:49.300Z,28.90
2022-09-07T21:34:18.230Z,24.75
2022-09-07T21:36:46.607Z,23.50
2022-09-07T21:39:14.882Z,22.48
2022-09-07T21:41:43.580Z,22.98
2022-09-07T21:44:13.838Z,24.33
2022-09-07T21:46:42.821Z,23.33
2022-09-07T21:49:12.812Z,24.25
2022-09-07T21:51:40.828Z,22.98
2022-09-07T21:54:09.173Z,23.98
2022-09-07T21:56:37.711Z,23.30
2022-09-07T21:59:06.619Z,22.05
2022-09-07T22:01:34.855Z,21.00
2022-09-07T22:04:05.506Z,23.73
2022-09-07T22:06:35.545Z,28.70
2022-09-07T22:09:05.140Z,29.17
2022-09-07T22:11:33.378Z,27.25
2022-09-07T22:14:03.906Z,22.88
2022-09-07T22:16:33.107Z,24.13
2022-09-07T22:19:01.699Z,21.95
2022-09-07T22:21:31.518Z,23.48
2022-09-07T22:24:03.464Z,21.15
2022-09-07T22:26:33.480Z,22.02
2022-09-07T22:29:01.925Z,21.45
2022-09-07T22:31:32.625Z,25.90
2022-09-07T22:34:02.563Z,26.42
2022-09-07T22:36:32.433Z,24.75
2022-09-07T22:39:04.205Z,26.85
2022-09-07T22:41:34.423Z,24.60
2022-09-07T22:44:02.680Z,24.02
2022-09-07T22:46:32.384Z,22.88
2022-09-07T22:49:00.539Z,23.67
2022-09-07T22:51:28.914Z,28.63
2022-09-07T22:53:57.447Z,28.52
2022-09-07T22:56:28.874Z,28.58
2022-09-07T22:58:58.565Z,27.35
2022-09-07T23:01:27.837Z,30.00
2022-09-07T23:03:56.411Z,30.65
2022-09-07T23:06:26.664Z,29.80
2022-09-07T23:08:56.471Z,30.02
2022-09-07T23:11:26.828Z,28.30
2022-09-07T23:13:56.891Z,25.80
2022-09-07T23:16:26.505Z,29.15
2022-09-07T23:18:54.710Z,28.60
2022-09-07T23:21:23.039Z,30.00
2022-09-07T23:23:52.372Z,30.10
2022-09-07T23:26:21.401Z,30.02
2022-09-07T23:28:53.939Z,29.88
2022-09-07T23:31:22.862Z,26.10
2022-09-07T23:33:51.344Z,28.58
2022-09-07T23:36:20.412Z,27.15
2022-09-07T23:38:48.958Z,30.20
2022-09-07T23:41:18.440Z,29.08
2022-09-07T23:43:46.666Z,27.90
2022-09-07T23:46:16.702Z,27.65
2022-09-07T23:48:45.113Z,29.40
2022-09-07T23:51:14.046Z,30.23
2022-09-07T23:53:42.469Z,29.25
2022-09-07T23:56:10.639Z,32.90
2022-09-07T23:58:38.837Z,23.85
